Widgeon — WDJ6594 — position and weather

sailwx.info

Track history (hours):
 
Tides and Currents Weather Stations Pressure Air Temp Water Temp Dewpoint Dewpoint Depression Visibility Wind Speed Wind Dir Waves Ship Positions

Widgeon

Owner: Kirby Inland Marine LP, Houston, TX. More information available from US FCC via Universal Licensing System and Coast Guard Vessel Documentation Center.

Last reported at 2018-Apr-21 05:55 UTC. Time now 2018-Apr-26 03:33 UTC.
Position N 29°33' W 090°25'.

Length 85 m; draft 2.1 m.

Type: . MMSI: 367799340.

Date/timePositionNaut miles runAvg speedWind from/ knotsBaromVisibWave heightAir tempDewpointWater temp
2018-Apr-21 05:55N 29°33' W 090°25'2 5.3
2018-Apr-21 05:27N 29°33' W 090°27'2 5.3
2018-Apr-21 05:00N 29°34' W 090°30'3 5.2
2018-Apr-21 04:30N 29°34' W 090°33'3 5.2
2018-Apr-21 04:00N 29°35' W 090°36'2 4.0
2018-Apr-21 03:30N 29°35' W 090°38'3 5.3
2018-Apr-21 03:00N 29°36' W 090°41'2 3.1
2018-Apr-21 02:30N 29°36' W 090°43'2 4.3
2018-Apr-21 02:00N 29°34' W 090°44'2 4.4
2018-Apr-21 01:30N 29°32' W 090°46'3 5.9
2018-Apr-21 01:00N 29°32' W 090°49'81 4.9
2018-Apr-20 08:29N 29°50' W 092°20'0 0.0
2018-Apr-20 03:59N 29°50' W 092°20'41 4.6
2018-Apr-19 19:00N 29°56' W 093°07'2 4.7
2018-Apr-19 18:29N 29°56' W 093°10'2 4.1
2018-Apr-19 18:00N 29°58' W 093°11'2 4.7
2018-Apr-19 17:30N 29°59' W 093°13'2 4.6
2018-Apr-19 17:00N 30°01' W 093°14'2 4.5
2018-Apr-19 16:30N 30°03' W 093°16'1 2.1
2018-Apr-19 16:00N 30°04' W 093°16'2 3.4
2018-Apr-19 15:30N 30°05' W 093°18'1 1.9
2018-Apr-19 15:00N 30°06' W 093°18'1 1.3
2018-Apr-19 14:30N 30°06' W 093°19'0 0.0
2018-Apr-19 14:00N 30°06' W 093°19'1 1.6
2018-Apr-19 13:30N 30°05' W 093°20'2 4.1
2018-Apr-19 13:00N 30°04' W 093°21'3 5.0
2018-Apr-19 12:29N 30°04' W 093°24'3 5.4
2018-Apr-19 12:00N 30°04' W 093°27'3 5.5
2018-Apr-19 11:30N 30°04' W 093°30'6 5.4
2018-Apr-19 10:19N 30°04' W 093°38'2 5.2
2018-Apr-19 09:53N 30°04' W 093°40'2 4.9
2018-Apr-19 09:30N 30°03' W 093°42'2 3.0
2018-Apr-19 09:00N 30°03' W 093°44'2 3.7
2018-Apr-19 08:30N 30°01' W 093°45'2 4.6
2018-Apr-19 08:00N 29°60' W 093°47'2 4.6
2018-Apr-19 07:31N 29°59' W 093°49'2 4.8
2018-Apr-19 07:00N 29°57' W 093°52'2 4.5
2018-Apr-19 06:30N 29°55' W 093°53'2 4.5
2018-Apr-19 06:00N 29°54' W 093°55'2 4.3
2018-Apr-19 05:30N 29°52' W 093°56'2 4.0
2018-Apr-19 05:00N 29°50' W 093°57'2 4.3
2018-Apr-19 04:30N 29°49' W 093°59'2 3.7
2018-Apr-19 04:00N 29°48' W 094°01'3 5.2
2018-Apr-19 03:30N 29°46' W 094°03'3 5.2
2018-Apr-19 03:00N 29°44' W 094°05'2 4.9
2018-Apr-19 02:30N 29°43' W 094°07'2 4.9
2018-Apr-19 02:00N 29°41' W 094°10'2 4.8
2018-Apr-19 01:30N 29°41' W 094°12'3 4.8
2018-Apr-19 00:59N 29°39' W 094°15'3 4.7
2018-Apr-19 00:24N 29°38' W 094°18'6 4.3
2018-Apr-18 23:05N 29°36' W 094°24'1 4.4
2018-Apr-18 22:50N 29°35' W 094°25'3 4.3
2018-Apr-18 22:02N 29°33' W 094°28'1 4.8
2018-Apr-18 21:53N 29°33' W 094°28'21 3.8
2018-Apr-18 16:33N 29°29' W 094°52'0 6.6
2018-Apr-18 16:29N 29°29' W 094°52'3 6.4
2018-Apr-18 16:00N 29°32' W 094°54'3 6.1
2018-Apr-18 15:30N 29°34' W 094°56'3 6.1
2018-Apr-18 15:00N 29°37' W 094°57'3 5.3
2018-Apr-18 14:30N 29°40' W 094°58'3 5.6
2018-Apr-18 14:00N 29°42' W 095°00'2 4.5
2018-Apr-18 13:30N 29°44' W 095°02'2 4.0
2018-Apr-18 13:00N 29°45' W 095°04'2 4.0
2018-Apr-18 12:26N 29°45' W 095°06'3 0.6
2018-Apr-18 07:10N 29°45' W 095°10'0 0.0
2018-Apr-18 06:52N 29°45' W 095°10'0 0.0
2018-Apr-18 02:21N 29°45' W 095°10'0 0.0
2018-Apr-18 02:00N 29°45' W 095°10'0 0.0
2018-Apr-18 01:28N 29°45' W 095°10'0 0.0
2018-Apr-17 23:08N 29°45' W 095°10'1 2.9
2018-Apr-17 22:53N 29°44' W 095°09'3 6.4
2018-Apr-17 22:30N 29°45' W 095°06'1 2.9
2018-Apr-17 22:00N 29°46' W 095°06'0 0.1
2018-Apr-17 18:47N 29°46' W 095°05'2 1.2
2018-Apr-17 17:21N 29°47' W 095°04'2 5.1
2018-Apr-17 17:00N 29°46' W 095°05'0 0.1
2018-Apr-17 13:49N 29°46' W 095°06'0 0.0
2018-Apr-17 13:30N 29°46' W 095°06'0 0.0
2018-Apr-17 12:55N 29°46' W 095°06'0 0.0
2018-Apr-17 12:28N 29°46' W 095°06'0 0.5
2018-Apr-17 11:57N 29°46' W 095°06'1 1.4
2018-Apr-17 11:16N 29°46' W 095°05'1 4.1
2018-Apr-17 11:00N 29°45' W 095°04'3 5.8
2018-Apr-17 10:27N 29°43' W 095°01'3 6.6
2018-Apr-17 10:00N 29°41' W 094°59'4 7.1
2018-Apr-17 09:30N 29°37' W 094°58'4 7.4
2018-Apr-17 09:00N 29°34' W 094°55'4 7.4
2018-Apr-17 08:30N 29°31' W 094°53'4 7.0
2018-Apr-17 07:58N 29°28' W 094°51'3 7.2
2018-Apr-17 07:30N 29°25' W 094°49'3 6.2
2018-Apr-17 06:59N 29°22' W 094°47'3 6.5
2018-Apr-17 06:30N 29°25' W 094°44'3 6.9
2018-Apr-17 06:00N 29°27' W 094°42'1 2.4
2018-Apr-17 05:28N 29°27' W 094°40'3 6.8
2018-Apr-17 05:00N 29°29' W 094°37'3 6.9
2018-Apr-17 04:30N 29°30' W 094°33'3 6.5
2018-Apr-17 04:00N 29°31' W 094°30'3 5.9
2018-Apr-17 03:30N 29°34' W 094°28'3 5.3
2018-Apr-17 02:57N 29°35' W 094°25'3 5.7
2018-Apr-17 02:30N 29°36' W 094°22'3 6.4
2018-Apr-17 01:59N 29°38' W 094°19'3 6.3
2018-Apr-17 01:31N 29°39' W 094°16'3 6.4
2018-Apr-17 01:00N 29°41' W 094°13'3 6.4
2018-Apr-17 00:30N 29°42' W 094°09'3 6.7
2018-Apr-17 00:00N 29°44' W 094°06'3 6.9
2018-Apr-16 23:30N 29°46' W 094°03'3 6.9
2018-Apr-16 23:00N 29°48' W 094°00'3 6.2
2018-Apr-16 22:30N 29°50' W 093°57'3 6.6
2018-Apr-16 22:00N 29°53' W 093°55'3 6.5
2018-Apr-16 21:30N 29°56' W 093°53'3 6.4
2018-Apr-16 21:00N 29°58' W 093°51'3 5.4
2018-Apr-16 20:30N 29°59' W 093°48'3 6.0
2018-Apr-16 20:00N 30°01' W 093°45'5 6.2
2018-Apr-16 19:16N 30°04' W 093°41'2 6.5
2018-Apr-16 19:00N 30°04' W 093°39'3 6.0
2018-Apr-16 18:30N 30°04' W 093°35'3 5.5
2018-Apr-16 18:00N 30°04' W 093°32'3 5.5
2018-Apr-16 17:30N 30°04' W 093°29'3 5.0
2018-Apr-16 17:00N 30°04' W 093°26'3 5.2
2018-Apr-16 16:30N 30°04' W 093°23'2 4.5
2018-Apr-16 16:00N 30°04' W 093°21'3 5.4
2018-Apr-16 15:30N 30°06' W 093°18'1 2.4
2018-Apr-16 15:00N 30°05' W 093°17'1 2.7
2018-Apr-16 14:30N 30°04' W 093°16'1 1.3
2018-Apr-16 14:00N 30°04' W 093°16'2 4.9
2018-Apr-16 13:30N 30°02' W 093°14'3 5.7
2018-Apr-16 13:00N 29°59' W 093°13'3 5.9
2018-Apr-16 12:30N 29°57' W 093°10'2 4.8
2018-Apr-16 12:00N 29°56' W 093°08'3 6.1
2018-Apr-16 11:29N 29°56' W 093°04'2 4.3
2018-Apr-16 10:57N 29°56' W 093°01'116 3.4
2018-Apr-15 00:37N 29°32' W 090°50'1 5.5
2018-Apr-15 00:30N 29°32' W 090°49'3 5.4
2018-Apr-15 00:00N 29°32' W 090°46'2 4.8
2018-Apr-14 23:30N 29°34' W 090°44'2 4.5
2018-Apr-14 23:00N 29°36' W 090°43'2 3.4
2018-Apr-14 22:30N 29°36' W 090°41'3 5.2
2018-Apr-14 22:00N 29°35' W 090°38'2 4.6
2018-Apr-14 21:30N 29°35' W 090°36'  
Track history (hours):
 
Tides and Currents Weather Stations Pressure Air Temp Water Temp Dewpoint Dewpoint Depression Visibility Wind Speed Wind Dir Waves Ship Positions

Widgeon

Owner: Kirby Inland Marine LP, Houston, TX. More information available from US FCC via Universal Licensing System and Coast Guard Vessel Documentation Center.

Last reported at 2018-Apr-21 05:55 UTC. Time now 2018-Apr-26 03:33 UTC.
Position N 29°33' W 090°25'.

Length 85 m; draft 2.1 m.

Type: . MMSI: 367799340.

Date/timePositionNaut miles runAvg speedWind from/ knotsBaromVisibWave heightAir tempDewpointWater temp
2018-Apr-21 05:55N 29°33' W 090°25'2 5.3
2018-Apr-21 05:27N 29°33' W 090°27'2 5.3
2018-Apr-21 05:00N 29°34' W 090°30'3 5.2
2018-Apr-21 04:30N 29°34' W 090°33'3 5.2
2018-Apr-21 04:00N 29°35' W 090°36'2 4.0
2018-Apr-21 03:30N 29°35' W 090°38'3 5.3
2018-Apr-21 03:00N 29°36' W 090°41'2 3.1
2018-Apr-21 02:30N 29°36' W 090°43'2 4.3
2018-Apr-21 02:00N 29°34' W 090°44'2 4.4
2018-Apr-21 01:30N 29°32' W 090°46'3 5.9
2018-Apr-21 01:00N 29°32' W 090°49'81 4.9
2018-Apr-20 08:29N 29°50' W 092°20'0 0.0
2018-Apr-20 03:59N 29°50' W 092°20'41 4.6
2018-Apr-19 19:00N 29°56' W 093°07'2 4.7
2018-Apr-19 18:29N 29°56' W 093°10'2 4.1
2018-Apr-19 18:00N 29°58' W 093°11'2 4.7
2018-Apr-19 17:30N 29°59' W 093°13'2 4.6
2018-Apr-19 17:00N 30°01' W 093°14'2 4.5
2018-Apr-19 16:30N 30°03' W 093°16'1 2.1
2018-Apr-19 16:00N 30°04' W 093°16'2 3.4
2018-Apr-19 15:30N 30°05' W 093°18'1 1.9
2018-Apr-19 15:00N 30°06' W 093°18'1 1.3
2018-Apr-19 14:30N 30°06' W 093°19'0 0.0
2018-Apr-19 14:00N 30°06' W 093°19'1 1.6
2018-Apr-19 13:30N 30°05' W 093°20'2 4.1
2018-Apr-19 13:00N 30°04' W 093°21'3 5.0
2018-Apr-19 12:29N 30°04' W 093°24'3 5.4
2018-Apr-19 12:00N 30°04' W 093°27'3 5.5
2018-Apr-19 11:30N 30°04' W 093°30'6 5.4
2018-Apr-19 10:19N 30°04' W 093°38'2 5.2
2018-Apr-19 09:53N 30°04' W 093°40'2 4.9
2018-Apr-19 09:30N 30°03' W 093°42'2 3.0
2018-Apr-19 09:00N 30°03' W 093°44'2 3.7
2018-Apr-19 08:30N 30°01' W 093°45'2 4.6
2018-Apr-19 08:00N 29°60' W 093°47'2 4.6
2018-Apr-19 07:31N 29°59' W 093°49'2 4.8
2018-Apr-19 07:00N 29°57' W 093°52'2 4.5
2018-Apr-19 06:30N 29°55' W 093°53'2 4.5
2018-Apr-19 06:00N 29°54' W 093°55'2 4.3
2018-Apr-19 05:30N 29°52' W 093°56'2 4.0
2018-Apr-19 05:00N 29°50' W 093°57'2 4.3
2018-Apr-19 04:30N 29°49' W 093°59'2 3.7
2018-Apr-19 04:00N 29°48' W 094°01'3 5.2
2018-Apr-19 03:30N 29°46' W 094°03'3 5.2
2018-Apr-19 03:00N 29°44' W 094°05'2 4.9
2018-Apr-19 02:30N 29°43' W 094°07'2 4.9
2018-Apr-19 02:00N 29°41' W 094°10'2 4.8
2018-Apr-19 01:30N 29°41' W 094°12'3 4.8
2018-Apr-19 00:59N 29°39' W 094°15'3 4.7
2018-Apr-19 00:24N 29°38' W 094°18'6 4.3
2018-Apr-18 23:05N 29°36' W 094°24'1 4.4
2018-Apr-18 22:50N 29°35' W 094°25'3 4.3
2018-Apr-18 22:02N 29°33' W 094°28'1 4.8
2018-Apr-18 21:53N 29°33' W 094°28'21 3.8
2018-Apr-18 16:33N 29°29' W 094°52'0 6.6
2018-Apr-18 16:29N 29°29' W 094°52'3 6.4
2018-Apr-18 16:00N 29°32' W 094°54'3 6.1
2018-Apr-18 15:30N 29°34' W 094°56'3 6.1
2018-Apr-18 15:00N 29°37' W 094°57'3 5.3
2018-Apr-18 14:30N 29°40' W 094°58'3 5.6
2018-Apr-18 14:00N 29°42' W 095°00'2 4.5
2018-Apr-18 13:30N 29°44' W 095°02'2 4.0
2018-Apr-18 13:00N 29°45' W 095°04'2 4.0
2018-Apr-18 12:26N 29°45' W 095°06'3 0.6
2018-Apr-18 07:10N 29°45' W 095°10'0 0.0
2018-Apr-18 06:52N 29°45' W 095°10'0 0.0
2018-Apr-18 02:21N 29°45' W 095°10'0 0.0
2018-Apr-18 02:00N 29°45' W 095°10'0 0.0
2018-Apr-18 01:28N 29°45' W 095°10'0 0.0
2018-Apr-17 23:08N 29°45' W 095°10'1 2.9
2018-Apr-17 22:53N 29°44' W 095°09'3 6.4
2018-Apr-17 22:30N 29°45' W 095°06'1 2.9
2018-Apr-17 22:00N 29°46' W 095°06'0 0.1
2018-Apr-17 18:47N 29°46' W 095°05'2 1.2
2018-Apr-17 17:21N 29°47' W 095°04'2 5.1
2018-Apr-17 17:00N 29°46' W 095°05'0 0.1
2018-Apr-17 13:49N 29°46' W 095°06'0 0.0
2018-Apr-17 13:30N 29°46' W 095°06'0 0.0
2018-Apr-17 12:55N 29°46' W 095°06'0 0.0
2018-Apr-17 12:28N 29°46' W 095°06'0 0.5
2018-Apr-17 11:57N 29°46' W 095°06'1 1.4
2018-Apr-17 11:16N 29°46' W 095°05'1 4.1
2018-Apr-17 11:00N 29°45' W 095°04'3 5.8
2018-Apr-17 10:27N 29°43' W 095°01'3 6.6
2018-Apr-17 10:00N 29°41' W 094°59'4 7.1
2018-Apr-17 09:30N 29°37' W 094°58'4 7.4
2018-Apr-17 09:00N 29°34' W 094°55'4 7.4
2018-Apr-17 08:30N 29°31' W 094°53'4 7.0
2018-Apr-17 07:58N 29°28' W 094°51'3 7.2
2018-Apr-17 07:30N 29°25' W 094°49'3 6.2
2018-Apr-17 06:59N 29°22' W 094°47'3 6.5
2018-Apr-17 06:30N 29°25' W 094°44'3 6.9
2018-Apr-17 06:00N 29°27' W 094°42'1 2.4
2018-Apr-17 05:28N 29°27' W 094°40'3 6.8
2018-Apr-17 05:00N 29°29' W 094°37'3 6.9
2018-Apr-17 04:30N 29°30' W 094°33'3 6.5
2018-Apr-17 04:00N 29°31' W 094°30'3 5.9
2018-Apr-17 03:30N 29°34' W 094°28'3 5.3
2018-Apr-17 02:57N 29°35' W 094°25'3 5.7
2018-Apr-17 02:30N 29°36' W 094°22'3 6.4
2018-Apr-17 01:59N 29°38' W 094°19'3 6.3
2018-Apr-17 01:31N 29°39' W 094°16'3 6.4
2018-Apr-17 01:00N 29°41' W 094°13'3 6.4
2018-Apr-17 00:30N 29°42' W 094°09'3 6.7
2018-Apr-17 00:00N 29°44' W 094°06'3 6.9
2018-Apr-16 23:30N 29°46' W 094°03'3 6.9
2018-Apr-16 23:00N 29°48' W 094°00'3 6.2
2018-Apr-16 22:30N 29°50' W 093°57'3 6.6
2018-Apr-16 22:00N 29°53' W 093°55'3 6.5
2018-Apr-16 21:30N 29°56' W 093°53'3 6.4
2018-Apr-16 21:00N 29°58' W 093°51'3 5.4
2018-Apr-16 20:30N 29°59' W 093°48'3 6.0
2018-Apr-16 20:00N 30°01' W 093°45'5 6.2
2018-Apr-16 19:16N 30°04' W 093°41'2 6.5
2018-Apr-16 19:00N 30°04' W 093°39'3 6.0
2018-Apr-16 18:30N 30°04' W 093°35'3 5.5
2018-Apr-16 18:00N 30°04' W 093°32'3 5.5
2018-Apr-16 17:30N 30°04' W 093°29'3 5.0
2018-Apr-16 17:00N 30°04' W 093°26'3 5.2
2018-Apr-16 16:30N 30°04' W 093°23'2 4.5
2018-Apr-16 16:00N 30°04' W 093°21'3 5.4
2018-Apr-16 15:30N 30°06' W 093°18'1 2.4
2018-Apr-16 15:00N 30°05' W 093°17'1 2.7
2018-Apr-16 14:30N 30°04' W 093°16'1 1.3
2018-Apr-16 14:00N 30°04' W 093°16'2 4.9
2018-Apr-16 13:30N 30°02' W 093°14'3 5.7
2018-Apr-16 13:00N 29°59' W 093°13'3 5.9
2018-Apr-16 12:30N 29°57' W 093°10'2 4.8
2018-Apr-16 12:00N 29°56' W 093°08'3 6.1
2018-Apr-16 11:29N 29°56' W 093°04'2 4.3
2018-Apr-16 10:57N 29°56' W 093°01'116 3.4
2018-Apr-15 00:37N 29°32' W 090°50'1 5.5
2018-Apr-15 00:30N 29°32' W 090°49'3 5.4
2018-Apr-15 00:00N 29°32' W 090°46'2 4.8
2018-Apr-14 23:30N 29°34' W 090°44'2 4.5
2018-Apr-14 23:00N 29°36' W 090°43'2 3.4
2018-Apr-14 22:30N 29°36' W 090°41'3 5.2
2018-Apr-14 22:00N 29°35' W 090°38'2 4.6
2018-Apr-14 21:30N 29°35' W 090°36'  

Dump ship's entire track history